sensor_id;sensor_type;location;lat;lon;timestamp;P1;durP1;ratioP1;P2;durP2;ratioP2
56997;SDS011;42890;44.244;22.530;2023-02-28T00:01:21;229.23;;;122.55;;
56997;SDS011;42890;44.244;22.530;2023-02-28T00:03:47;231.18;;;135.18;;
56997;SDS011;42890;44.244;22.530;2023-02-28T00:06:13;172.32;;;100.57;;
56997;SDS011;42890;44.244;22.530;2023-02-28T00:08:40;428.50;;;230.85;;
56997;SDS011;42890;44.244;22.530;2023-02-28T00:11:07;293.08;;;147.55;;
56997;SDS011;42890;44.244;22.530;2023-02-28T00:13:34;167.93;;;97.10;;
56997;SDS011;42890;44.244;22.530;2023-02-28T00:16:03;152.35;;;90.50;;
56997;SDS011;42890;44.244;22.530;2023-02-28T00:18:30;145.55;;;87.90;;
56997;SDS011;42890;44.244;22.530;2023-02-28T00:20:56;136.38;;;86.75;;
56997;SDS011;42890;44.244;22.530;2023-02-28T00:23:22;107.28;;;74.43;;
56997;SDS011;42890;44.244;22.530;2023-02-28T00:25:48;101.53;;;70.75;;
56997;SDS011;42890;44.244;22.530;2023-02-28T00:28:14;98.57;;;67.93;;
56997;SDS011;42890;44.244;22.530;2023-02-28T00:30:41;95.57;;;68.78;;
56997;SDS011;42890;44.244;22.530;2023-02-28T00:33:07;83.82;;;66.07;;
56997;SDS011;42890;44.244;22.530;2023-02-28T00:35:33;80.43;;;62.88;;
56997;SDS011;42890;44.244;22.530;2023-02-28T00:37:59;95.07;;;68.95;;
56997;SDS011;42890;44.244;22.530;2023-02-28T00:40:25;98.82;;;72.72;;
56997;SDS011;42890;44.244;22.530;2023-02-28T00:42:51;95.88;;;72.72;;
56997;SDS011;42890;44.244;22.530;2023-02-28T00:45:17;106.70;;;72.30;;
56997;SDS011;42890;44.244;22.530;2023-02-28T00:47:44;92.50;;;69.53;;
56997;SDS011;42890;44.244;22.530;2023-02-28T00:50:11;91.25;;;64.63;;
56997;SDS011;42890;44.244;22.530;2023-02-28T00:52:37;77.10;;;60.05;;
56997;SDS011;42890;44.244;22.530;2023-02-28T00:55:04;79.35;;;65.03;;
56997;SDS011;42890;44.244;22.530;2023-02-28T00:57:30;85.50;;;67.13;;
56997;SDS011;42890;44.244;22.530;2023-02-28T00:59:56;89.93;;;67.30;;
56997;SDS011;42890;44.244;22.530;2023-02-28T01:02:22;77.93;;;65.70;;
56997;SDS011;42890;44.244;22.530;2023-02-28T01:04:49;80.63;;;63.95;;
56997;SDS011;42890;44.244;22.530;2023-02-28T01:07:15;85.10;;;64.63;;
56997;SDS011;42890;44.244;22.530;2023-02-28T01:09:41;77.55;;;60.63;;
56997;SDS011;42890;44.244;22.530;2023-02-28T01:12:08;73.85;;;61.25;;
56997;SDS011;42890;44.244;22.530;2023-02-28T01:14:34;74.28;;;60.20;;
56997;SDS011;42890;44.244;22.530;2023-02-28T01:17:00;71.97;;;59.50;;
56997;SDS011;42890;44.244;22.530;2023-02-28T01:19:27;80.13;;;60.92;;
56997;SDS011;42890;44.244;22.530;2023-02-28T01:21:53;70.43;;;57.67;;
56997;SDS011;42890;44.244;22.530;2023-02-28T01:24:19;75.40;;;59.25;;
56997;SDS011;42890;44.244;22.530;2023-02-28T01:26:45;78.07;;;63.10;;
56997;SDS011;42890;44.244;22.530;2023-02-28T01:29:11;88.13;;;68.28;;
56997;SDS011;42890;44.244;22.530;2023-02-28T01:31:37;96.45;;;69.93;;
56997;SDS011;42890;44.244;22.530;2023-02-28T01:34:03;77.82;;;62.83;;
56997;SDS011;42890;44.244;22.530;2023-02-28T01:36:30;63.60;;;54.85;;
56997;SDS011;42890;44.244;22.530;2023-02-28T01:38:56;51.22;;;43.55;;
56997;SDS011;42890;44.244;22.530;2023-02-28T01:41:23;53.08;;;44.95;;
56997;SDS011;42890;44.244;22.530;2023-02-28T01:46:15;49.30;;;42.42;;
56997;SDS011;42890;44.244;22.530;2023-02-28T01:48:43;47.53;;;41.92;;
56997;SDS011;42890;44.244;22.530;2023-02-28T01:51:13;46.55;;;40.08;;
56997;SDS011;42890;44.244;22.530;2023-02-28T01:53:53;46.13;;;41.22;;
56997;SDS011;42890;44.244;22.530;2023-02-28T01:56:22;40.72;;;35.97;;
56997;SDS011;42890;44.244;22.530;2023-02-28T01:58:50;40.58;;;35.17;;
56997;SDS011;42890;44.244;22.530;2023-02-28T02:01:17;39.28;;;34.78;;
56997;SDS011;42890;44.244;22.530;2023-02-28T02:03:50;38.22;;;32.97;;
56997;SDS011;42890;44.244;22.530;2023-02-28T02:06:24;37.08;;;32.65;;
56997;SDS011;42890;44.244;22.530;2023-02-28T02:08:51;37.70;;;32.60;;
56997;SDS011;42890;44.244;22.530;2023-02-28T02:11:17;62.08;;;43.92;;
56997;SDS011;42890;44.244;22.530;2023-02-28T02:16:25;68.25;;;49.65;;
56997;SDS011;42890;44.244;22.530;2023-02-28T02:18:53;43.58;;;38.17;;
56997;SDS011;42890;44.244;22.530;2023-02-28T02:37:18;45.72;;;38.78;;
56997;SDS011;42890;44.244;22.530;2023-02-28T02:39:49;46.60;;;40.05;;
56997;SDS011;42890;44.244;22.530;2023-02-28T02:42:22;50.50;;;43.60;;
56997;SDS011;42890;44.244;22.530;2023-02-28T02:44:52;59.72;;;47.00;;
56997;SDS011;42890;44.244;22.530;2023-02-28T02:47:20;58.03;;;45.70;;
56997;SDS011;42890;44.244;22.530;2023-02-28T02:49:50;54.17;;;45.50;;
56997;SDS011;42890;44.244;22.530;2023-02-28T02:52:18;57.47;;;48.80;;
56997;SDS011;42890;44.244;22.530;2023-02-28T02:54:46;54.58;;;46.13;;
56997;SDS011;42890;44.244;22.530;2023-02-28T02:57:15;143.60;;;82.60;;
56997;SDS011;42890;44.244;22.530;2023-02-28T02:59:44;130.80;;;81.00;;
56997;SDS011;42890;44.244;22.530;2023-02-28T03:02:11;58.08;;;48.60;;
56997;SDS011;42890;44.244;22.530;2023-02-28T03:04:40;57.60;;;43.67;;
56997;SDS011;42890;44.244;22.530;2023-02-28T03:07:07;53.67;;;43.65;;
56997;SDS011;42890;44.244;22.530;2023-02-28T03:09:34;51.15;;;42.75;;
56997;SDS011;42890;44.244;22.530;2023-02-28T03:12:03;52.42;;;44.35;;
56997;SDS011;42890;44.244;22.530;2023-02-28T03:30:05;116.70;;;77.53;;
56997;SDS011;42890;44.244;22.530;2023-02-28T03:32:37;136.45;;;88.10;;
56997;SDS011;42890;44.244;22.530;2023-02-28T03:35:09;113.53;;;63.42;;
56997;SDS011;42890;44.244;22.530;2023-02-28T03:37:37;127.78;;;85.82;;
56997;SDS011;42890;44.244;22.530;2023-02-28T03:40:08;140.20;;;77.13;;
56997;SDS011;42890;44.244;22.530;2023-02-28T03:42:38;148.98;;;78.85;;
56997;SDS011;42890;44.244;22.530;2023-02-28T03:45:08;102.05;;;68.88;;
56997;SDS011;42890;44.244;22.530;2023-02-28T03:47:56;109.72;;;81.55;;
56997;SDS011;42890;44.244;22.530;2023-02-28T03:50:25;58.50;;;49.47;;
56997;SDS011;42890;44.244;22.530;2023-02-28T03:52:58;48.83;;;43.53;;
56997;SDS011;42890;44.244;22.530;2023-02-28T03:55:28;49.15;;;42.08;;
56997;SDS011;42890;44.244;22.530;2023-02-28T03:58:07;49.40;;;43.90;;
56997;SDS011;42890;44.244;22.530;2023-02-28T04:00:37;49.13;;;41.45;;
56997;SDS011;42890;44.244;22.530;2023-02-28T04:03:05;47.00;;;40.53;;
56997;SDS011;42890;44.244;22.530;2023-02-28T04:05:31;48.38;;;41.92;;
56997;SDS011;42890;44.244;22.530;2023-02-28T04:08:07;44.35;;;39.60;;
56997;SDS011;42890;44.244;22.530;2023-02-28T04:10:33;40.08;;;35.67;;
56997;SDS011;42890;44.244;22.530;2023-02-28T04:12:59;41.50;;;34.72;;
56997;SDS011;42890;44.244;22.530;2023-02-28T04:15:25;40.78;;;35.15;;
56997;SDS011;42890;44.244;22.530;2023-02-28T04:17:52;45.03;;;37.92;;
56997;SDS011;42890;44.244;22.530;2023-02-28T04:20:18;44.88;;;35.95;;
56997;SDS011;42890;44.244;22.530;2023-02-28T04:22:44;40.45;;;34.03;;
56997;SDS011;42890;44.244;22.530;2023-02-28T04:25:11;40.30;;;32.78;;
56997;SDS011;42890;44.244;22.530;2023-02-28T04:27:37;39.85;;;32.28;;
56997;SDS011;42890;44.244;22.530;2023-02-28T04:30:03;40.63;;;33.30;;
56997;SDS011;42890;44.244;22.530;2023-02-28T04:32:29;39.83;;;32.78;;
56997;SDS011;42890;44.244;22.530;2023-02-28T04:34:55;41.50;;;35.05;;
56997;SDS011;42890;44.244;22.530;2023-02-28T04:37:21;45.22;;;34.10;;
56997;SDS011;42890;44.244;22.530;2023-02-28T04:39:52;40.90;;;31.98;;
56997;SDS011;42890;44.244;22.530;2023-02-28T04:42:19;40.05;;;32.75;;
56997;SDS011;42890;44.244;22.530;2023-02-28T04:44:45;41.35;;;33.65;;
56997;SDS011;42890;44.244;22.530;2023-02-28T04:47:12;41.22;;;35.08;;
56997;SDS011;42890;44.244;22.530;2023-02-28T04:49:38;40.95;;;34.50;;
56997;SDS011;42890;44.244;22.530;2023-02-28T04:52:04;43.17;;;38.35;;
56997;SDS011;42890;44.244;22.530;2023-02-28T04:54:32;41.47;;;33.63;;
56997;SDS011;42890;44.244;22.530;2023-02-28T04:56:58;39.58;;;32.53;;
56997;SDS011;42890;44.244;22.530;2023-02-28T04:59:24;41.10;;;34.20;;
56997;SDS011;42890;44.244;22.530;2023-02-28T05:01:50;39.58;;;33.95;;
56997;SDS011;42890;44.244;22.530;2023-02-28T05:04:16;38.47;;;32.45;;
56997;SDS011;42890;44.244;22.530;2023-02-28T05:06:43;43.72;;;34.80;;
56997;SDS011;42890;44.244;22.530;2023-02-28T05:09:09;50.38;;;37.33;;
56997;SDS011;42890;44.244;22.530;2023-02-28T05:11:39;44.22;;;35.92;;
56997;SDS011;42890;44.244;22.530;2023-02-28T05:14:06;47.75;;;38.47;;
56997;SDS011;42890;44.244;22.530;2023-02-28T05:16:32;47.53;;;36.92;;
56997;SDS011;42890;44.244;22.530;2023-02-28T05:18:59;46.03;;;34.92;;
56997;SDS011;42890;44.244;22.530;2023-02-28T05:23:54;64.65;;;53.97;;
56997;SDS011;42890;44.244;22.530;2023-02-28T05:26:21;68.80;;;50.63;;
56997;SDS011;42890;44.244;22.530;2023-02-28T05:28:47;60.45;;;48.80;;
56997;SDS011;42890;44.244;22.530;2023-02-28T05:31:13;56.72;;;40.38;;
56997;SDS011;42890;44.244;22.530;2023-02-28T05:33:40;53.40;;;39.70;;
56997;SDS011;42890;44.244;22.530;2023-02-28T05:36:06;54.28;;;38.80;;
56997;SDS011;42890;44.244;22.530;2023-02-28T05:38:32;53.55;;;38.45;;
56997;SDS011;42890;44.244;22.530;2023-02-28T05:40:58;52.03;;;40.15;;
56997;SDS011;42890;44.244;22.530;2023-02-28T05:43:25;57.10;;;39.85;;
56997;SDS011;42890;44.244;22.530;2023-02-28T05:45:51;54.05;;;40.40;;
56997;SDS011;42890;44.244;22.530;2023-02-28T05:48:17;55.58;;;41.28;;
56997;SDS011;42890;44.244;22.530;2023-02-28T05:50:43;55.85;;;40.47;;
56997;SDS011;42890;44.244;22.530;2023-02-28T05:53:11;52.45;;;38.13;;
56997;SDS011;42890;44.244;22.530;2023-02-28T05:55:37;54.38;;;39.05;;
56997;SDS011;42890;44.244;22.530;2023-02-28T05:58:03;50.65;;;38.67;;
56997;SDS011;42890;44.244;22.530;2023-02-28T06:00:29;56.13;;;38.72;;
56997;SDS011;42890;44.244;22.530;2023-02-28T06:02:55;46.88;;;35.97;;
56997;SDS011;42890;44.244;22.530;2023-02-28T06:05:24;56.72;;;39.20;;
56997;SDS011;42890;44.244;22.530;2023-02-28T06:07:51;50.53;;;38.83;;
56997;SDS011;42890;44.244;22.530;2023-02-28T06:10:17;50.45;;;37.67;;
56997;SDS011;42890;44.244;22.530;2023-02-28T06:12:43;49.28;;;37.92;;
56997;SDS011;42890;44.244;22.530;2023-02-28T06:15:11;42.72;;;34.63;;
56997;SDS011;42890;44.244;22.530;2023-02-28T06:17:37;37.45;;;29.25;;
56997;SDS011;42890;44.244;22.530;2023-02-28T06:20:04;31.90;;;28.27;;
56997;SDS011;42890;44.244;22.530;2023-02-28T06:22:30;30.27;;;26.70;;
56997;SDS011;42890;44.244;22.530;2023-02-28T06:24:57;30.30;;;27.00;;
56997;SDS011;42890;44.244;22.530;2023-02-28T06:27:23;27.00;;;23.40;;
56997;SDS011;42890;44.244;22.530;2023-02-28T06:29:49;25.77;;;23.08;;
56997;SDS011;42890;44.244;22.530;2023-02-28T06:32:19;32.38;;;28.90;;
56997;SDS011;42890;44.244;22.530;2023-02-28T06:34:45;34.03;;;30.65;;
56997;SDS011;42890;44.244;22.530;2023-02-28T06:37:11;43.95;;;38.22;;
56997;SDS011;42890;44.244;22.530;2023-02-28T06:39:38;51.80;;;46.55;;
56997;SDS011;42890;44.244;22.530;2023-02-28T06:42:04;39.13;;;35.28;;
56997;SDS011;42890;44.244;22.530;2023-02-28T06:44:30;34.40;;;30.95;;
56997;SDS011;42890;44.244;22.530;2023-02-28T06:47:00;31.77;;;28.40;;
56997;SDS011;42890;44.244;22.530;2023-02-28T06:49:28;31.90;;;28.70;;
56997;SDS011;42890;44.244;22.530;2023-02-28T06:51:55;38.95;;;35.15;;
56997;SDS011;42890;44.244;22.530;2023-02-28T06:54:21;36.85;;;33.22;;
56997;SDS011;42890;44.244;22.530;2023-02-28T06:56:47;33.97;;;30.67;;
56997;SDS011;42890;44.244;22.530;2023-02-28T06:59:13;28.60;;;26.00;;
56997;SDS011;42890;44.244;22.530;2023-02-28T07:01:40;28.95;;;26.17;;
56997;SDS011;42890;44.244;22.530;2023-02-28T07:04:06;34.15;;;30.60;;
56997;SDS011;42890;44.244;22.530;2023-02-28T07:06:32;54.55;;;48.08;;
56997;SDS011;42890;44.244;22.530;2023-02-28T07:08:58;62.97;;;54.40;;
56997;SDS011;42890;44.244;22.530;2023-02-28T07:11:25;62.97;;;51.65;;
56997;SDS011;42890;44.244;22.530;2023-02-28T07:13:55;70.80;;;59.70;;
56997;SDS011;42890;44.244;22.530;2023-02-28T07:16:21;60.83;;;52.30;;
56997;SDS011;42890;44.244;22.530;2023-02-28T07:18:48;43.38;;;38.92;;
56997;SDS011;42890;44.244;22.530;2023-02-28T07:21:15;38.78;;;33.25;;
56997;SDS011;42890;44.244;22.530;2023-02-28T07:23:41;71.60;;;63.50;;
56997;SDS011;42890;44.244;22.530;2023-02-28T07:26:08;90.93;;;71.63;;
56997;SDS011;42890;44.244;22.530;2023-02-28T07:28:36;52.15;;;46.40;;
56997;SDS011;42890;44.244;22.530;2023-02-28T07:31:06;41.35;;;36.95;;
56997;SDS011;42890;44.244;22.530;2023-02-28T07:33:32;37.30;;;33.45;;
56997;SDS011;42890;44.244;22.530;2023-02-28T07:36:32;28.48;;;25.77;;
56997;SDS011;42890;44.244;22.530;2023-02-28T07:38:51;24.73;;;22.30;;
56997;SDS011;42890;44.244;22.530;2023-02-28T07:41:19;19.92;;;18.02;;
56997;SDS011;42890;44.244;22.530;2023-02-28T07:43:46;17.17;;;15.77;;
56997;SDS011;42890;44.244;22.530;2023-02-28T07:46:13;18.75;;;17.25;;
56997;SDS011;42890;44.244;22.530;2023-02-28T07:48:40;15.95;;;14.65;;
56997;SDS011;42890;44.244;22.530;2023-02-28T07:51:06;16.98;;;15.57;;
56997;SDS011;42890;44.244;22.530;2023-02-28T07:53:32;22.35;;;20.40;;
56997;SDS011;42890;44.244;22.530;2023-02-28T07:55:59;21.00;;;19.30;;
56997;SDS011;42890;44.244;22.530;2023-02-28T07:58:26;20.73;;;18.83;;
56997;SDS011;42890;44.244;22.530;2023-02-28T08:00:52;15.30;;;14.05;;
56997;SDS011;42890;44.244;22.530;2023-02-28T08:03:18;17.27;;;15.82;;
56997;SDS011;42890;44.244;22.530;2023-02-28T08:05:45;17.25;;;15.75;;
56997;SDS011;42890;44.244;22.530;2023-02-28T08:08:11;17.05;;;15.65;;
56997;SDS011;42890;44.244;22.530;2023-02-28T08:10:37;16.83;;;15.52;;
56997;SDS011;42890;44.244;22.530;2023-02-28T08:13:03;18.25;;;16.58;;
56997;SDS011;42890;44.244;22.530;2023-02-28T08:15:29;18.13;;;16.52;;
56997;SDS011;42890;44.244;22.530;2023-02-28T08:17:56;17.98;;;16.58;;
56997;SDS011;42890;44.244;22.530;2023-02-28T08:20:22;21.15;;;19.35;;
56997;SDS011;42890;44.244;22.530;2023-02-28T08:22:48;19.52;;;17.83;;
56997;SDS011;42890;44.244;22.530;2023-02-28T08:25:15;20.50;;;18.70;;
56997;SDS011;42890;44.244;22.530;2023-02-28T08:27:41;20.27;;;18.38;;
56997;SDS011;42890;44.244;22.530;2023-02-28T08:30:07;20.92;;;18.95;;
56997;SDS011;42890;44.244;22.530;2023-02-28T08:32:35;21.63;;;19.33;;
56997;SDS011;42890;44.244;22.530;2023-02-28T08:35:01;17.63;;;15.90;;
56997;SDS011;42890;44.244;22.530;2023-02-28T08:37:28;19.10;;;17.42;;
56997;SDS011;42890;44.244;22.530;2023-02-28T08:39:54;20.95;;;18.92;;
56997;SDS011;42890;44.244;22.530;2023-02-28T08:42:20;19.15;;;17.50;;
56997;SDS011;42890;44.244;22.530;2023-02-28T08:44:46;19.02;;;17.38;;
56997;SDS011;42890;44.244;22.530;2023-02-28T08:47:12;18.40;;;16.80;;
56997;SDS011;42890;44.244;22.530;2023-02-28T08:49:38;20.45;;;18.45;;
56997;SDS011;42890;44.244;22.530;2023-02-28T08:52:04;22.15;;;20.10;;
56997;SDS011;42890;44.244;22.530;2023-02-28T08:54:31;19.13;;;17.52;;
56997;SDS011;42890;44.244;22.530;2023-02-28T08:56:58;19.00;;;17.40;;
56997;SDS011;42890;44.244;22.530;2023-02-28T08:59:24;20.02;;;18.20;;
56997;SDS011;42890;44.244;22.530;2023-02-28T09:01:50;19.27;;;17.48;;
56997;SDS011;42890;44.244;22.530;2023-02-28T09:04:16;18.17;;;16.48;;
56997;SDS011;42890;44.244;22.530;2023-02-28T09:06:42;18.13;;;16.40;;
56997;SDS011;42890;44.244;22.530;2023-02-28T09:09:09;18.52;;;16.80;;
56997;SDS011;42890;44.244;22.530;2023-02-28T09:11:35;20.75;;;18.70;;
56997;SDS011;42890;44.244;22.530;2023-02-28T09:14:02;19.73;;;18.02;;
56997;SDS011;42890;44.244;22.530;2023-02-28T09:16:31;20.13;;;18.33;;
56997;SDS011;42890;44.244;22.530;2023-02-28T09:18:58;26.45;;;23.75;;
56997;SDS011;42890;44.244;22.530;2023-02-28T09:21:25;22.90;;;20.63;;
56997;SDS011;42890;44.244;22.530;2023-02-28T09:23:52;26.33;;;22.65;;
56997;SDS011;42890;44.244;22.530;2023-02-28T09:26:19;20.73;;;18.63;;
56997;SDS011;42890;44.244;22.530;2023-02-28T09:28:46;25.63;;;23.00;;
56997;SDS011;42890;44.244;22.530;2023-02-28T09:31:15;25.25;;;22.65;;
56997;SDS011;42890;44.244;22.530;2023-02-28T09:33:42;26.10;;;23.50;;
56997;SDS011;42890;44.244;22.530;2023-02-28T09:36:08;21.67;;;19.75;;
56997;SDS011;42890;44.244;22.530;2023-02-28T09:38:34;23.77;;;21.55;;
56997;SDS011;42890;44.244;22.530;2023-02-28T09:41:01;22.63;;;20.40;;
56997;SDS011;42890;44.244;22.530;2023-02-28T09:43:38;21.67;;;19.65;;
56997;SDS011;42890;44.244;22.530;2023-02-28T09:48:51;23.00;;;20.92;;
56997;SDS011;42890;44.244;22.530;2023-02-28T09:53:46;23.65;;;21.23;;
56997;SDS011;42890;44.244;22.530;2023-02-28T09:56:20;24.73;;;22.13;;
56997;SDS011;42890;44.244;22.530;2023-02-28T10:07:02;25.17;;;23.02;;
56997;SDS011;42890;44.244;22.530;2023-02-28T10:09:31;25.42;;;23.17;;
56997;SDS011;42890;44.244;22.530;2023-02-28T10:12:03;24.92;;;22.63;;
56997;SDS011;42890;44.244;22.530;2023-02-28T10:14:31;25.63;;;23.17;;
56997;SDS011;42890;44.244;22.530;2023-02-28T10:17:02;25.65;;;23.10;;
56997;SDS011;42890;44.244;22.530;2023-02-28T10:19:31;27.85;;;23.58;;
56997;SDS011;42890;44.244;22.530;2023-02-28T10:21:59;31.52;;;28.52;;
56997;SDS011;42890;44.244;22.530;2023-02-28T10:24:30;34.20;;;29.65;;
56997;SDS011;42890;44.244;22.530;2023-02-28T10:27:06;27.85;;;24.67;;
56997;SDS011;42890;44.244;22.530;2023-02-28T10:29:36;25.73;;;23.20;;
56997;SDS011;42890;44.244;22.530;2023-02-28T10:32:02;24.92;;;22.30;;
56997;SDS011;42890;44.244;22.530;2023-02-28T10:34:29;24.70;;;22.40;;
56997;SDS011;42890;44.244;22.530;2023-02-28T10:36:55;26.13;;;23.63;;
56997;SDS011;42890;44.244;22.530;2023-02-28T10:39:35;25.20;;;22.85;;
56997;SDS011;42890;44.244;22.530;2023-02-28T10:42:02;27.70;;;25.20;;
56997;SDS011;42890;44.244;22.530;2023-02-28T10:44:29;27.67;;;25.17;;
56997;SDS011;42890;44.244;22.530;2023-02-28T10:46:55;26.45;;;23.95;;
56997;SDS011;42890;44.244;22.530;2023-02-28T10:49:30;22.85;;;20.85;;
56997;SDS011;42890;44.244;22.530;2023-02-28T10:51:57;24.02;;;21.92;;
56997;SDS011;42890;44.244;22.530;2023-02-28T10:54:29;23.95;;;21.75;;
56997;SDS011;42890;44.244;22.530;2023-02-28T10:57:07;23.98;;;21.85;;
56997;SDS011;42890;44.244;22.530;2023-02-28T10:59:34;24.42;;;22.02;;
56997;SDS011;42890;44.244;22.530;2023-02-28T11:02:00;26.23;;;23.60;;
56997;SDS011;42890;44.244;22.530;2023-02-28T11:09:44;24.95;;;22.35;;
56997;SDS011;42890;44.244;22.530;2023-02-28T11:12:45;24.70;;;22.50;;
56997;SDS011;42890;44.244;22.530;2023-02-28T11:15:21;24.27;;;21.90;;
56997;SDS011;42890;44.244;22.530;2023-02-28T11:18:15;28.00;;;25.42;;
56997;SDS011;42890;44.244;22.530;2023-02-28T11:20:47;31.42;;;28.52;;
56997;SDS011;42890;44.244;22.530;2023-02-28T11:23:13;38.75;;;35.00;;
56997;SDS011;42890;44.244;22.530;2023-02-28T11:25:40;32.90;;;29.63;;
56997;SDS011;42890;44.244;22.530;2023-02-28T11:28:27;39.30;;;35.27;;
56997;SDS011;42890;44.244;22.530;2023-02-28T11:31:00;33.50;;;30.10;;
56997;SDS011;42890;44.244;22.530;2023-02-28T11:33:31;33.00;;;29.58;;
56997;SDS011;42890;44.244;22.530;2023-02-28T11:36:02;34.67;;;31.23;;
56997;SDS011;42890;44.244;22.530;2023-02-28T11:38:28;32.42;;;29.50;;
56997;SDS011;42890;44.244;22.530;2023-02-28T12:03:33;50.05;;;44.63;;
56997;SDS011;42890;44.244;22.530;2023-02-28T12:13:41;45.13;;;40.33;;
56997;SDS011;42890;44.244;22.530;2023-02-28T12:23:46;33.92;;;27.05;;
56997;SDS011;42890;44.244;22.530;2023-02-28T12:26:31;30.27;;;27.15;;
56997;SDS011;42890;44.244;22.530;2023-02-28T12:29:19;30.55;;;26.98;;
56997;SDS011;42890;44.244;22.530;2023-02-28T12:31:53;30.08;;;27.27;;
56997;SDS011;42890;44.244;22.530;2023-02-28T12:34:31;34.10;;;30.80;;
56997;SDS011;42890;44.244;22.530;2023-02-28T12:36:58;31.65;;;26.63;;
56997;SDS011;42890;44.244;22.530;2023-02-28T12:39:26;38.80;;;35.05;;
56997;SDS011;42890;44.244;22.530;2023-02-28T12:44:25;35.47;;;32.22;;
56997;SDS011;42890;44.244;22.530;2023-02-28T12:46:54;36.67;;;33.28;;
56997;SDS011;42890;44.244;22.530;2023-02-28T12:49:23;36.45;;;32.88;;
56997;SDS011;42890;44.244;22.530;2023-02-28T12:51:50;37.85;;;34.35;;
56997;SDS011;42890;44.244;22.530;2023-02-28T12:54:35;37.35;;;34.03;;
56997;SDS011;42890;44.244;22.530;2023-02-28T12:57:11;37.70;;;34.13;;
56997;SDS011;42890;44.244;22.530;2023-02-28T13:10:36;32.95;;;29.55;;
56997;SDS011;42890;44.244;22.530;2023-02-28T13:13:03;34.45;;;31.10;;
56997;SDS011;42890;44.244;22.530;2023-02-28T13:15:29;44.17;;;39.50;;
56997;SDS011;42890;44.244;22.530;2023-02-28T13:18:00;86.82;;;61.60;;
56997;SDS011;42890;44.244;22.530;2023-02-28T13:20:33;69.03;;;52.88;;
56997;SDS011;42890;44.244;22.530;2023-02-28T13:23:00;238.27;;;107.35;;
56997;SDS011;42890;44.244;22.530;2023-02-28T13:28:11;60.28;;;39.40;;
56997;SDS011;42890;44.244;22.530;2023-02-28T13:38:40;50.67;;;40.80;;
56997;SDS011;42890;44.244;22.530;2023-02-28T13:46:30;46.22;;;41.35;;
56997;SDS011;42890;44.244;22.530;2023-02-28T13:48:56;86.80;;;68.13;;
56997;SDS011;42890;44.244;22.530;2023-02-28T13:52:06;60.17;;;52.40;;
56997;SDS011;42890;44.244;22.530;2023-02-28T13:54:26;56.85;;;51.30;;
56997;SDS011;42890;44.244;22.530;2023-02-28T13:57:08;54.92;;;49.80;;
56997;SDS011;42890;44.244;22.530;2023-02-28T13:59:43;56.35;;;50.50;;
56997;SDS011;42890;44.244;22.530;2023-02-28T14:05:40;59.53;;;53.47;;
56997;SDS011;42890;44.244;22.530;2023-02-28T14:08:04;61.60;;;55.17;;
56997;SDS011;42890;44.244;22.530;2023-02-28T14:10:31;64.10;;;56.88;;
56997;SDS011;42890;44.244;22.530;2023-02-28T14:12:59;64.18;;;57.47;;
56997;SDS011;42890;44.244;22.530;2023-02-28T14:18:01;54.92;;;49.72;;
56997;SDS011;42890;44.244;22.530;2023-02-28T14:20:29;55.00;;;49.80;;
56997;SDS011;42890;44.244;22.530;2023-02-28T14:33:31;54.83;;;49.13;;
56997;SDS011;42890;44.244;22.530;2023-02-28T14:36:17;59.75;;;49.03;;
56997;SDS011;42890;44.244;22.530;2023-02-28T14:41:18;57.00;;;51.15;;
56997;SDS011;42890;44.244;22.530;2023-02-28T14:43:49;63.70;;;52.47;;
56997;SDS011;42890;44.244;22.530;2023-02-28T14:46:16;67.82;;;55.85;;
56997;SDS011;42890;44.244;22.530;2023-02-28T14:48:45;57.17;;;49.72;;
56997;SDS011;42890;44.244;22.530;2023-02-28T14:51:11;50.35;;;45.35;;
56997;SDS011;42890;44.244;22.530;2023-02-28T14:53:37;50.83;;;45.50;;
56997;SDS011;42890;44.244;22.530;2023-02-28T14:56:04;50.03;;;45.22;;
56997;SDS011;42890;44.244;22.530;2023-02-28T14:58:31;51.50;;;46.33;;
56997;SDS011;42890;44.244;22.530;2023-02-28T15:00:58;55.20;;;49.38;;
56997;SDS011;42890;44.244;22.530;2023-02-28T15:05:58;58.28;;;52.22;;
56997;SDS011;42890;44.244;22.530;2023-02-28T15:08:25;59.47;;;53.28;;
56997;SDS011;42890;44.244;22.530;2023-02-28T15:13:20;56.80;;;51.53;;
56997;SDS011;42890;44.244;22.530;2023-02-28T15:15:56;57.55;;;51.95;;
56997;SDS011;42890;44.244;22.530;2023-02-28T15:18:26;55.75;;;49.88;;
56997;SDS011;42890;44.244;22.530;2023-02-28T15:20:53;60.28;;;53.85;;
56997;SDS011;42890;44.244;22.530;2023-02-28T15:23:20;57.95;;;51.95;;
56997;SDS011;42890;44.244;22.530;2023-02-28T15:25:47;62.00;;;54.40;;
56997;SDS011;42890;44.244;22.530;2023-02-28T15:28:15;58.85;;;52.90;;
56997;SDS011;42890;44.244;22.530;2023-02-28T15:30:50;62.45;;;55.80;;
56997;SDS011;42890;44.244;22.530;2023-02-28T15:35:42;61.85;;;55.53;;
56997;SDS011;42890;44.244;22.530;2023-02-28T15:38:25;59.15;;;53.28;;
56997;SDS011;42890;44.244;22.530;2023-02-28T15:40:52;59.58;;;53.60;;
56997;SDS011;42890;44.244;22.530;2023-02-28T15:43:26;60.17;;;54.30;;
56997;SDS011;42890;44.244;22.530;2023-02-28T15:51:29;56.97;;;51.60;;
56997;SDS011;42890;44.244;22.530;2023-02-28T15:53:39;64.38;;;58.03;;
56997;SDS011;42890;44.244;22.530;2023-02-28T15:56:13;59.33;;;53.78;;
56997;SDS011;42890;44.244;22.530;2023-02-28T15:58:44;56.25;;;50.75;;
56997;SDS011;42890;44.244;22.530;2023-02-28T16:01:23;57.25;;;51.50;;
56997;SDS011;42890;44.244;22.530;2023-02-28T16:03:51;58.03;;;52.28;;
56997;SDS011;42890;44.244;22.530;2023-02-28T16:08:46;61.38;;;55.28;;
56997;SDS011;42890;44.244;22.530;2023-02-28T16:11:13;60.15;;;54.17;;
56997;SDS011;42890;44.244;22.530;2023-02-28T16:13:40;59.40;;;53.83;;
56997;SDS011;42890;44.244;22.530;2023-02-28T16:16:06;57.20;;;51.70;;
56997;SDS011;42890;44.244;22.530;2023-02-28T16:18:32;59.42;;;53.90;;
56997;SDS011;42890;44.244;22.530;2023-02-28T16:20:58;59.17;;;53.22;;
56997;SDS011;42890;44.244;22.530;2023-02-28T16:23:24;59.78;;;53.90;;
56997;SDS011;42890;44.244;22.530;2023-02-28T16:25:50;57.42;;;51.65;;
56997;SDS011;42890;44.244;22.530;2023-02-28T16:28:20;61.05;;;54.58;;
56997;SDS011;42890;44.244;22.530;2023-02-28T16:30:51;58.88;;;52.53;;
56997;SDS011;42890;44.244;22.530;2023-02-28T16:33:17;55.08;;;49.50;;
56997;SDS011;42890;44.244;22.530;2023-02-28T16:35:43;68.40;;;56.92;;
56997;SDS011;42890;44.244;22.530;2023-02-28T16:38:09;62.55;;;55.97;;
56997;SDS011;42890;44.244;22.530;2023-02-28T16:40:35;53.60;;;48.35;;
56997;SDS011;42890;44.244;22.530;2023-02-28T16:43:04;53.60;;;48.17;;
56997;SDS011;42890;44.244;22.530;2023-02-28T16:45:31;52.67;;;47.85;;
56997;SDS011;42890;44.244;22.530;2023-02-28T16:47:57;49.22;;;44.00;;
56997;SDS011;42890;44.244;22.530;2023-02-28T16:50:24;50.47;;;45.13;;
56997;SDS011;42890;44.244;22.530;2023-02-28T16:52:51;44.95;;;40.60;;
56997;SDS011;42890;44.244;22.530;2023-02-28T16:55:19;45.22;;;40.80;;